sensor_id;sensor_type;location;lat;lon;timestamp;P1;durP1;ratioP1;P2;durP2;ratioP2
31402;SDS011;18039;52.188;21.024;2023-04-15T00:01:12;13.05;;;8.00;;
31402;SDS011;18039;52.188;21.024;2023-04-15T00:03:44;12.82;;;7.50;;
31402;SDS011;18039;52.188;21.024;2023-04-15T00:06:12;12.80;;;7.63;;
31402;SDS011;18039;52.188;21.024;2023-04-15T00:08:40;12.40;;;7.72;;
31402;SDS011;18039;52.188;21.024;2023-04-15T00:11:07;12.63;;;8.20;;
31402;SDS011;18039;52.188;21.024;2023-04-15T00:13:34;12.63;;;7.72;;
31402;SDS011;18039;52.188;21.024;2023-04-15T00:16:02;11.48;;;7.88;;
31402;SDS011;18039;52.188;21.024;2023-04-15T00:18:30;14.05;;;7.95;;
31402;SDS011;18039;52.188;21.024;2023-04-15T00:20:57;12.93;;;8.48;;
31402;SDS011;18039;52.188;21.024;2023-04-15T00:23:25;13.18;;;8.23;;
31402;SDS011;18039;52.188;21.024;2023-04-15T00:25:53;12.32;;;7.80;;
31402;SDS011;18039;52.188;21.024;2023-04-15T00:28:20;14.57;;;8.27;;
31402;SDS011;18039;52.188;21.024;2023-04-15T00:30:48;13.85;;;8.60;;
31402;SDS011;18039;52.188;21.024;2023-04-15T00:33:16;12.02;;;8.52;;
31402;SDS011;18039;52.188;21.024;2023-04-15T00:35:44;10.65;;;7.90;;
31402;SDS011;18039;52.188;21.024;2023-04-15T00:38:11;13.82;;;8.48;;
31402;SDS011;18039;52.188;21.024;2023-04-15T00:40:41;15.98;;;8.60;;
31402;SDS011;18039;52.188;21.024;2023-04-15T00:43:09;13.95;;;8.95;;
31402;SDS011;18039;52.188;21.024;2023-04-15T00:45:37;13.10;;;8.48;;
31402;SDS011;18039;52.188;21.024;2023-04-15T00:48:04;12.55;;;8.30;;
31402;SDS011;18039;52.188;21.024;2023-04-15T00:50:32;13.27;;;8.63;;
31402;SDS011;18039;52.188;21.024;2023-04-15T00:52:59;13.55;;;8.90;;
31402;SDS011;18039;52.188;21.024;2023-04-15T00:55:26;14.93;;;9.10;;
31402;SDS011;18039;52.188;21.024;2023-04-15T00:57:54;14.38;;;8.88;;
31402;SDS011;18039;52.188;21.024;2023-04-15T01:00:23;13.27;;;8.38;;
31402;SDS011;18039;52.188;21.024;2023-04-15T01:02:51;12.05;;;7.95;;
31402;SDS011;18039;52.188;21.024;2023-04-15T01:05:19;12.50;;;8.35;;
31402;SDS011;18039;52.188;21.024;2023-04-15T01:07:47;13.60;;;9.27;;
31402;SDS011;18039;52.188;21.024;2023-04-15T01:10:14;13.40;;;7.82;;
31402;SDS011;18039;52.188;21.024;2023-04-15T01:12:41;12.60;;;8.23;;
31402;SDS011;18039;52.188;21.024;2023-04-15T01:15:09;13.77;;;8.43;;
31402;SDS011;18039;52.188;21.024;2023-04-15T01:17:37;12.70;;;8.65;;
31402;SDS011;18039;52.188;21.024;2023-04-15T01:20:06;14.30;;;9.88;;
31402;SDS011;18039;52.188;21.024;2023-04-15T01:22:36;16.98;;;9.68;;
31402;SDS011;18039;52.188;21.024;2023-04-15T01:27:43;15.65;;;9.85;;
31402;SDS011;18039;52.188;21.024;2023-04-15T01:30:11;19.98;;;11.10;;
31402;SDS011;18039;52.188;21.024;2023-04-15T01:32:38;17.20;;;10.73;;
31402;SDS011;18039;52.188;21.024;2023-04-15T01:35:06;14.93;;;10.07;;
31402;SDS011;18039;52.188;21.024;2023-04-15T01:37:33;16.15;;;10.88;;
31402;SDS011;18039;52.188;21.024;2023-04-15T01:40:01;17.67;;;10.07;;
31402;SDS011;18039;52.188;21.024;2023-04-15T01:42:30;16.27;;;10.57;;
31402;SDS011;18039;52.188;21.024;2023-04-15T01:44:58;17.20;;;10.98;;
31402;SDS011;18039;52.188;21.024;2023-04-15T01:47:25;16.55;;;11.18;;
31402;SDS011;18039;52.188;21.024;2023-04-15T01:49:53;15.82;;;10.30;;
31402;SDS011;18039;52.188;21.024;2023-04-15T01:52:20;15.65;;;10.43;;
31402;SDS011;18039;52.188;21.024;2023-04-15T01:54:48;17.13;;;10.73;;
31402;SDS011;18039;52.188;21.024;2023-04-15T01:57:15;15.93;;;10.52;;
31402;SDS011;18039;52.188;21.024;2023-04-15T01:59:42;16.63;;;10.75;;
31402;SDS011;18039;52.188;21.024;2023-04-15T02:02:09;16.27;;;10.10;;
31402;SDS011;18039;52.188;21.024;2023-04-15T02:04:37;19.58;;;12.80;;
31402;SDS011;18039;52.188;21.024;2023-04-15T02:07:04;15.48;;;11.20;;
31402;SDS011;18039;52.188;21.024;2023-04-15T02:09:34;16.52;;;11.00;;
31402;SDS011;18039;52.188;21.024;2023-04-15T02:12:01;18.08;;;11.10;;
31402;SDS011;18039;52.188;21.024;2023-04-15T02:14:28;17.25;;;10.90;;
31402;SDS011;18039;52.188;21.024;2023-04-15T02:16:55;16.10;;;11.20;;
31402;SDS011;18039;52.188;21.024;2023-04-15T02:19:23;17.02;;;10.70;;
31402;SDS011;18039;52.188;21.024;2023-04-15T02:21:50;18.00;;;11.55;;
31402;SDS011;18039;52.188;21.024;2023-04-15T02:24:18;17.67;;;11.98;;
31402;SDS011;18039;52.188;21.024;2023-04-15T02:26:45;16.70;;;11.38;;
31402;SDS011;18039;52.188;21.024;2023-04-15T02:29:14;16.90;;;11.27;;
31402;SDS011;18039;52.188;21.024;2023-04-15T02:31:41;19.15;;;12.02;;
31402;SDS011;18039;52.188;21.024;2023-04-15T02:34:10;17.95;;;12.10;;
31402;SDS011;18039;52.188;21.024;2023-04-15T02:36:36;19.13;;;12.02;;
31402;SDS011;18039;52.188;21.024;2023-04-15T02:39:05;19.65;;;12.02;;
31402;SDS011;18039;52.188;21.024;2023-04-15T02:41:33;17.40;;;11.45;;
31402;SDS011;18039;52.188;21.024;2023-04-15T02:44:02;18.05;;;11.25;;
31402;SDS011;18039;52.188;21.024;2023-04-15T02:46:29;19.30;;;11.98;;
31402;SDS011;18039;52.188;21.024;2023-04-15T02:48:57;16.95;;;11.13;;
31402;SDS011;18039;52.188;21.024;2023-04-15T02:51:29;19.50;;;12.05;;
31402;SDS011;18039;52.188;21.024;2023-04-15T02:53:57;19.67;;;12.70;;
31402;SDS011;18039;52.188;21.024;2023-04-15T02:56:24;19.48;;;12.95;;
31402;SDS011;18039;52.188;21.024;2023-04-15T02:58:53;17.10;;;11.35;;
31402;SDS011;18039;52.188;21.024;2023-04-15T03:05:05;19.27;;;12.32;;
31402;SDS011;18039;52.188;21.024;2023-04-15T03:07:34;21.42;;;12.63;;
31402;SDS011;18039;52.188;21.024;2023-04-15T03:10:02;19.08;;;12.45;;
31402;SDS011;18039;52.188;21.024;2023-04-15T03:12:29;19.42;;;11.90;;
31402;SDS011;18039;52.188;21.024;2023-04-15T03:14:57;18.58;;;12.32;;
31402;SDS011;18039;52.188;21.024;2023-04-15T03:17:32;21.08;;;12.77;;
31402;SDS011;18039;52.188;21.024;2023-04-15T03:20:00;16.98;;;11.68;;
31402;SDS011;18039;52.188;21.024;2023-04-15T03:22:31;20.37;;;12.27;;
31402;SDS011;18039;52.188;21.024;2023-04-15T03:24:59;19.83;;;12.38;;
31402;SDS011;18039;52.188;21.024;2023-04-15T03:27:26;19.48;;;12.02;;
31402;SDS011;18039;52.188;21.024;2023-04-15T03:29:58;18.63;;;12.18;;
31402;SDS011;18039;52.188;21.024;2023-04-15T03:32:28;20.23;;;13.23;;
31402;SDS011;18039;52.188;21.024;2023-04-15T03:34:55;17.42;;;11.57;;
31402;SDS011;18039;52.188;21.024;2023-04-15T03:37:22;18.17;;;12.40;;
31402;SDS011;18039;52.188;21.024;2023-04-15T03:39:50;19.73;;;12.57;;
31402;SDS011;18039;52.188;21.024;2023-04-15T03:42:17;16.77;;;11.80;;
31402;SDS011;18039;52.188;21.024;2023-04-15T03:44:44;19.95;;;13.20;;
31402;SDS011;18039;52.188;21.024;2023-04-15T03:47:12;17.98;;;12.43;;
31402;SDS011;18039;52.188;21.024;2023-04-15T03:49:39;20.45;;;11.85;;
31402;SDS011;18039;52.188;21.024;2023-04-15T03:52:06;17.90;;;11.75;;
31402;SDS011;18039;52.188;21.024;2023-04-15T03:54:34;19.60;;;12.50;;
31402;SDS011;18039;52.188;21.024;2023-04-15T03:57:01;20.85;;;13.48;;
31402;SDS011;18039;52.188;21.024;2023-04-15T03:59:28;20.38;;;12.75;;
31402;SDS011;18039;52.188;21.024;2023-04-15T04:01:56;17.70;;;11.52;;
31402;SDS011;18039;52.188;21.024;2023-04-15T04:04:24;19.00;;;11.25;;
31402;SDS011;18039;52.188;21.024;2023-04-15T04:06:51;18.15;;;12.30;;
31402;SDS011;18039;52.188;21.024;2023-04-15T04:09:18;19.77;;;11.70;;
31402;SDS011;18039;52.188;21.024;2023-04-15T04:11:46;18.20;;;12.45;;
31402;SDS011;18039;52.188;21.024;2023-04-15T04:14:13;17.77;;;11.38;;
31402;SDS011;18039;52.188;21.024;2023-04-15T04:16:40;18.27;;;11.82;;
31402;SDS011;18039;52.188;21.024;2023-04-15T04:19:08;17.10;;;11.45;;
31402;SDS011;18039;52.188;21.024;2023-04-15T04:21:35;18.67;;;11.82;;
31402;SDS011;18039;52.188;21.024;2023-04-15T04:24:02;18.55;;;12.10;;
31402;SDS011;18039;52.188;21.024;2023-04-15T04:26:29;16.92;;;11.80;;
31402;SDS011;18039;52.188;21.024;2023-04-15T04:28:57;20.63;;;12.20;;
31402;SDS011;18039;52.188;21.024;2023-04-15T04:31:24;21.50;;;12.35;;
31402;SDS011;18039;52.188;21.024;2023-04-15T04:33:52;18.00;;;12.05;;
31402;SDS011;18039;52.188;21.024;2023-04-15T04:36:19;23.50;;;13.13;;
31402;SDS011;18039;52.188;21.024;2023-04-15T04:38:46;20.48;;;12.68;;
31402;SDS011;18039;52.188;21.024;2023-04-15T04:41:13;16.98;;;11.90;;
31402;SDS011;18039;52.188;21.024;2023-04-15T04:43:40;23.50;;;13.10;;
31402;SDS011;18039;52.188;21.024;2023-04-15T04:46:08;18.52;;;11.35;;
31402;SDS011;18039;52.188;21.024;2023-04-15T04:48:35;16.35;;;11.55;;
31402;SDS011;18039;52.188;21.024;2023-04-15T04:51:03;18.38;;;12.73;;
31402;SDS011;18039;52.188;21.024;2023-04-15T04:53:30;18.08;;;11.23;;
31402;SDS011;18039;52.188;21.024;2023-04-15T04:55:57;19.90;;;13.00;;
31402;SDS011;18039;52.188;21.024;2023-04-15T04:58:25;18.52;;;11.80;;
31402;SDS011;18039;52.188;21.024;2023-04-15T05:00:53;18.48;;;12.35;;
31402;SDS011;18039;52.188;21.024;2023-04-15T05:03:20;20.30;;;11.63;;
31402;SDS011;18039;52.188;21.024;2023-04-15T05:05:48;17.73;;;11.52;;
31402;SDS011;18039;52.188;21.024;2023-04-15T05:08:15;22.58;;;12.68;;
31402;SDS011;18039;52.188;21.024;2023-04-15T05:10:43;19.88;;;13.10;;
31402;SDS011;18039;52.188;21.024;2023-04-15T05:13:10;22.85;;;13.52;;
31402;SDS011;18039;52.188;21.024;2023-04-15T05:15:38;21.33;;;13.32;;
31402;SDS011;18039;52.188;21.024;2023-04-15T05:18:07;17.73;;;11.48;;
31402;SDS011;18039;52.188;21.024;2023-04-15T05:20:34;19.98;;;11.57;;
31402;SDS011;18039;52.188;21.024;2023-04-15T05:23:02;19.92;;;12.10;;
31402;SDS011;18039;52.188;21.024;2023-04-15T05:25:29;16.27;;;11.25;;
31402;SDS011;18039;52.188;21.024;2023-04-15T05:27:56;18.63;;;11.15;;
31402;SDS011;18039;52.188;21.024;2023-04-15T05:30:24;15.60;;;11.15;;
31402;SDS011;18039;52.188;21.024;2023-04-15T05:32:51;21.58;;;12.85;;
31402;SDS011;18039;52.188;21.024;2023-04-15T05:35:18;17.95;;;11.45;;
31402;SDS011;18039;52.188;21.024;2023-04-15T05:37:46;18.20;;;11.23;;
31402;SDS011;18039;52.188;21.024;2023-04-15T05:40:13;20.30;;;12.30;;
31402;SDS011;18039;52.188;21.024;2023-04-15T05:42:41;18.63;;;11.65;;
31402;SDS011;18039;52.188;21.024;2023-04-15T05:45:08;18.58;;;11.40;;
31402;SDS011;18039;52.188;21.024;2023-04-15T05:47:36;17.45;;;11.02;;
31402;SDS011;18039;52.188;21.024;2023-04-15T05:50:06;21.50;;;12.15;;
31402;SDS011;18039;52.188;21.024;2023-04-15T05:52:34;15.70;;;10.55;;
31402;SDS011;18039;52.188;21.024;2023-04-15T05:55:01;17.05;;;11.25;;
31402;SDS011;18039;52.188;21.024;2023-04-15T05:57:29;14.80;;;10.52;;
31402;SDS011;18039;52.188;21.024;2023-04-15T05:59:56;17.70;;;11.80;;
31402;SDS011;18039;52.188;21.024;2023-04-15T06:02:24;17.10;;;11.02;;
31402;SDS011;18039;52.188;21.024;2023-04-15T06:04:52;16.27;;;10.68;;
31402;SDS011;18039;52.188;21.024;2023-04-15T06:07:19;16.85;;;11.20;;
31402;SDS011;18039;52.188;21.024;2023-04-15T06:09:46;16.33;;;10.55;;
31402;SDS011;18039;52.188;21.024;2023-04-15T06:12:14;17.55;;;10.85;;
31402;SDS011;18039;52.188;21.024;2023-04-15T06:14:42;16.05;;;10.73;;
31402;SDS011;18039;52.188;21.024;2023-04-15T06:17:10;18.02;;;10.95;;
31402;SDS011;18039;52.188;21.024;2023-04-15T06:19:37;17.55;;;11.23;;
31402;SDS011;18039;52.188;21.024;2023-04-15T06:22:05;17.45;;;11.13;;
31402;SDS011;18039;52.188;21.024;2023-04-15T06:24:32;18.80;;;11.05;;
31402;SDS011;18039;52.188;21.024;2023-04-15T06:27:00;16.55;;;11.10;;
31402;SDS011;18039;52.188;21.024;2023-04-15T06:29:28;13.85;;;10.10;;
31402;SDS011;18039;52.188;21.024;2023-04-15T06:31:55;14.30;;;10.25;;
31402;SDS011;18039;52.188;21.024;2023-04-15T06:34:22;16.10;;;11.30;;
31402;SDS011;18039;52.188;21.024;2023-04-15T06:36:50;13.50;;;9.82;;
31402;SDS011;18039;52.188;21.024;2023-04-15T06:39:17;15.27;;;10.30;;
31402;SDS011;18039;52.188;21.024;2023-04-15T06:41:44;16.05;;;10.13;;
31402;SDS011;18039;52.188;21.024;2023-04-15T06:44:11;14.50;;;9.57;;
31402;SDS011;18039;52.188;21.024;2023-04-15T06:46:38;18.10;;;10.55;;
31402;SDS011;18039;52.188;21.024;2023-04-15T06:49:06;14.95;;;10.05;;
31402;SDS011;18039;52.188;21.024;2023-04-15T06:51:34;14.05;;;9.20;;
31402;SDS011;18039;52.188;21.024;2023-04-15T06:54:02;13.88;;;9.70;;
31402;SDS011;18039;52.188;21.024;2023-04-15T06:56:32;14.20;;;9.13;;
31402;SDS011;18039;52.188;21.024;2023-04-15T06:58:59;12.70;;;9.25;;
31402;SDS011;18039;52.188;21.024;2023-04-15T07:01:28;14.82;;;9.20;;
31402;SDS011;18039;52.188;21.024;2023-04-15T07:03:55;12.70;;;9.27;;
31402;SDS011;18039;52.188;21.024;2023-04-15T07:06:23;14.07;;;9.05;;
31402;SDS011;18039;52.188;21.024;2023-04-15T07:08:50;13.07;;;9.20;;
31402;SDS011;18039;52.188;21.024;2023-04-15T07:11:17;13.07;;;9.15;;
31402;SDS011;18039;52.188;21.024;2023-04-15T07:13:46;12.93;;;8.20;;
31402;SDS011;18039;52.188;21.024;2023-04-15T07:16:13;14.60;;;8.10;;
31402;SDS011;18039;52.188;21.024;2023-04-15T07:18:41;13.90;;;8.52;;
31402;SDS011;18039;52.188;21.024;2023-04-15T07:21:09;11.38;;;7.72;;
31402;SDS011;18039;52.188;21.024;2023-04-15T07:23:37;12.70;;;8.23;;
31402;SDS011;18039;52.188;21.024;2023-04-15T07:26:04;11.20;;;8.45;;
31402;SDS011;18039;52.188;21.024;2023-04-15T07:28:31;12.20;;;8.25;;
31402;SDS011;18039;52.188;21.024;2023-04-15T07:30:59;11.23;;;7.70;;
31402;SDS011;18039;52.188;21.024;2023-04-15T07:33:26;13.73;;;7.82;;
31402;SDS011;18039;52.188;21.024;2023-04-15T07:35:53;17.30;;;8.65;;
31402;SDS011;18039;52.188;21.024;2023-04-15T07:38:21;12.38;;;8.15;;
31402;SDS011;18039;52.188;21.024;2023-04-15T07:40:49;11.82;;;7.63;;
31402;SDS011;18039;52.188;21.024;2023-04-15T07:43:16;13.02;;;7.85;;
31402;SDS011;18039;52.188;21.024;2023-04-15T07:45:44;10.32;;;6.80;;
31402;SDS011;18039;52.188;21.024;2023-04-15T07:48:11;12.85;;;8.27;;
31402;SDS011;18039;52.188;21.024;2023-04-15T07:50:38;9.13;;;6.78;;
31402;SDS011;18039;52.188;21.024;2023-04-15T07:53:05;13.52;;;8.00;;
31402;SDS011;18039;52.188;21.024;2023-04-15T07:55:33;12.05;;;7.40;;
31402;SDS011;18039;52.188;21.024;2023-04-15T07:58:00;11.60;;;7.53;;
31402;SDS011;18039;52.188;21.024;2023-04-15T08:00:28;12.20;;;7.50;;
31402;SDS011;18039;52.188;21.024;2023-04-15T08:02:55;10.52;;;7.30;;
31402;SDS011;18039;52.188;21.024;2023-04-15T08:05:23;9.52;;;7.00;;
31402;SDS011;18039;52.188;21.024;2023-04-15T08:07:51;11.10;;;6.60;;
31402;SDS011;18039;52.188;21.024;2023-04-15T08:10:18;9.98;;;6.90;;
31402;SDS011;18039;52.188;21.024;2023-04-15T08:12:46;9.60;;;6.22;;
31402;SDS011;18039;52.188;21.024;2023-04-15T08:15:15;13.82;;;7.43;;
31402;SDS011;18039;52.188;21.024;2023-04-15T08:17:42;10.63;;;7.25;;
31402;SDS011;18039;52.188;21.024;2023-04-15T08:20:10;9.30;;;6.45;;
31402;SDS011;18039;52.188;21.024;2023-04-15T08:22:37;10.68;;;6.57;;
31402;SDS011;18039;52.188;21.024;2023-04-15T08:25:05;8.20;;;5.38;;
31402;SDS011;18039;52.188;21.024;2023-04-15T08:27:32;8.60;;;6.10;;
31402;SDS011;18039;52.188;21.024;2023-04-15T08:30:00;9.68;;;6.13;;
31402;SDS011;18039;52.188;21.024;2023-04-15T08:32:30;10.43;;;5.88;;
31402;SDS011;18039;52.188;21.024;2023-04-15T08:34:58;7.65;;;5.68;;
31402;SDS011;18039;52.188;21.024;2023-04-15T08:37:26;8.88;;;5.60;;
31402;SDS011;18039;52.188;21.024;2023-04-15T08:39:53;9.88;;;6.18;;
31402;SDS011;18039;52.188;21.024;2023-04-15T08:42:26;10.15;;;5.75;;
31402;SDS011;18039;52.188;21.024;2023-04-15T08:45:01;9.13;;;5.43;;
31402;SDS011;18039;52.188;21.024;2023-04-15T08:47:30;8.15;;;4.90;;
31402;SDS011;18039;52.188;21.024;2023-04-15T08:49:58;10.25;;;5.10;;
31402;SDS011;18039;52.188;21.024;2023-04-15T08:52:25;13.77;;;5.45;;
31402;SDS011;18039;52.188;21.024;2023-04-15T08:54:54;7.25;;;5.35;;
31402;SDS011;18039;52.188;21.024;2023-04-15T08:57:29;7.82;;;5.53;;
31402;SDS011;18039;52.188;21.024;2023-04-15T08:59:57;8.20;;;5.13;;
31402;SDS011;18039;52.188;21.024;2023-04-15T09:02:24;7.82;;;4.32;;
31402;SDS011;18039;52.188;21.024;2023-04-15T09:04:53;7.35;;;4.90;;
31402;SDS011;18039;52.188;21.024;2023-04-15T09:07:20;7.45;;;4.70;;
31402;SDS011;18039;52.188;21.024;2023-04-15T09:09:48;7.60;;;4.28;;
31402;SDS011;18039;52.188;21.024;2023-04-15T09:12:15;6.43;;;4.20;;
31402;SDS011;18039;52.188;21.024;2023-04-15T09:14:44;7.13;;;3.75;;
31402;SDS011;18039;52.188;21.024;2023-04-15T09:17:13;7.70;;;4.82;;
31402;SDS011;18039;52.188;21.024;2023-04-15T09:19:46;6.05;;;4.00;;
31402;SDS011;18039;52.188;21.024;2023-04-15T09:22:13;6.38;;;4.68;;
31402;SDS011;18039;52.188;21.024;2023-04-15T09:24:41;10.65;;;5.00;;
31402;SDS011;18039;52.188;21.024;2023-04-15T09:27:09;5.15;;;3.90;;
31402;SDS011;18039;52.188;21.024;2023-04-15T09:29:37;5.93;;;4.18;;
31402;SDS011;18039;52.188;21.024;2023-04-15T09:32:10;8.77;;;4.68;;
31402;SDS011;18039;52.188;21.024;2023-04-15T09:34:41;6.97;;;3.80;;
31402;SDS011;18039;52.188;21.024;2023-04-15T09:37:09;7.72;;;4.53;;
31402;SDS011;18039;52.188;21.024;2023-04-15T09:39:46;5.07;;;3.72;;
31402;SDS011;18039;52.188;21.024;2023-04-15T09:42:15;7.45;;;4.50;;
31402;SDS011;18039;52.188;21.024;2023-04-15T09:44:50;7.57;;;3.60;;
31402;SDS011;18039;52.188;21.024;2023-04-15T09:47:31;4.85;;;3.80;;
31402;SDS011;18039;52.188;21.024;2023-04-15T09:49:59;4.47;;;3.40;;
31402;SDS011;18039;52.188;21.024;2023-04-15T09:52:27;6.53;;;3.50;;
31402;SDS011;18039;52.188;21.024;2023-04-15T09:54:56;5.43;;;3.53;;
31402;SDS011;18039;52.188;21.024;2023-04-15T09:57:24;8.20;;;3.92;;
31402;SDS011;18039;52.188;21.024;2023-04-15T10:00:00;6.00;;;3.75;;
31402;SDS011;18039;52.188;21.024;2023-04-15T10:02:27;7.68;;;3.97;;
31402;SDS011;18039;52.188;21.024;2023-04-15T10:04:57;5.88;;;3.30;;
31402;SDS011;18039;52.188;21.024;2023-04-15T10:07:25;4.82;;;3.55;;
31402;SDS011;18039;52.188;21.024;2023-04-15T10:09:53;4.32;;;3.33;;
31402;SDS011;18039;52.188;21.024;2023-04-15T10:12:20;5.40;;;4.03;;
31402;SDS011;18039;52.188;21.024;2023-04-15T10:14:52;7.55;;;3.83;;
31402;SDS011;18039;52.188;21.024;2023-04-15T10:17:22;6.72;;;3.45;;
31402;SDS011;18039;52.188;21.024;2023-04-15T10:19:53;5.05;;;3.65;;
31402;SDS011;18039;52.188;21.024;2023-04-15T10:22:24;4.75;;;3.83;;
31402;SDS011;18039;52.188;21.024;2023-04-15T10:24:54;6.20;;;3.75;;
31402;SDS011;18039;52.188;21.024;2023-04-15T10:27:22;6.43;;;4.00;;
31402;SDS011;18039;52.188;21.024;2023-04-15T10:29:50;6.93;;;3.97;;
31402;SDS011;18039;52.188;21.024;2023-04-15T10:32:18;3.88;;;2.92;;
31402;SDS011;18039;52.188;21.024;2023-04-15T10:34:50;4.75;;;3.20;;
31402;SDS011;18039;52.188;21.024;2023-04-15T10:37:21;5.70;;;3.60;;
31402;SDS011;18039;52.188;21.024;2023-04-15T10:39:49;5.78;;;3.55;;
31402;SDS011;18039;52.188;21.024;2023-04-15T10:42:19;5.63;;;3.75;;
31402;SDS011;18039;52.188;21.024;2023-04-15T10:44:50;4.90;;;3.53;;
31402;SDS011;18039;52.188;21.024;2023-04-15T10:47:22;4.28;;;3.25;;
31402;SDS011;18039;52.188;21.024;2023-04-15T10:49:57;4.43;;;3.10;;
31402;SDS011;18039;52.188;21.024;2023-04-15T10:52:26;5.57;;;3.75;;
31402;SDS011;18039;52.188;21.024;2023-04-15T10:55:01;4.57;;;3.25;;
31402;SDS011;18039;52.188;21.024;2023-04-15T10:57:36;4.03;;;3.05;;
31402;SDS011;18039;52.188;21.024;2023-04-15T11:05:11;4.60;;;3.65;;
31402;SDS011;18039;52.188;21.024;2023-04-15T11:12:40;5.80;;;3.40;;
31402;SDS011;18039;52.188;21.024;2023-04-15T11:17:54;4.97;;;3.58;;
31402;SDS011;18039;52.188;21.024;2023-04-15T11:20:23;5.07;;;3.47;;
31402;SDS011;18039;52.188;21.024;2023-04-15T11:22:51;5.50;;;3.70;;
31402;SDS011;18039;52.188;21.024;2023-04-15T11:25:39;6.55;;;3.22;;
31402;SDS011;18039;52.188;21.024;2023-04-15T11:28:07;4.55;;;3.47;;
31402;SDS011;18039;52.188;21.024;2023-04-15T11:30:35;4.88;;;3.15;;
31402;SDS011;18039;52.188;21.024;2023-04-15T11:33:04;5.68;;;3.60;;
31402;SDS011;18039;52.188;21.024;2023-04-15T11:35:34;5.80;;;3.88;;
31402;SDS011;18039;52.188;21.024;2023-04-15T11:38:05;8.95;;;4.05;;
31402;SDS011;18039;52.188;21.024;2023-04-15T11:40:35;6.70;;;3.85;;
31402;SDS011;18039;52.188;21.024;2023-04-15T11:43:13;4.07;;;3.28;;
31402;SDS011;18039;52.188;21.024;2023-04-15T11:45:53;6.65;;;3.90;;
31402;SDS011;18039;52.188;21.024;2023-04-15T11:48:26;6.93;;;3.92;;
31402;SDS011;18039;52.188;21.024;2023-04-15T11:50:57;7.35;;;4.93;;
31402;SDS011;18039;52.188;21.024;2023-04-15T11:53:36;8.90;;;4.68;;
31402;SDS011;18039;52.188;21.024;2023-04-15T11:56:18;6.47;;;4.45;;
31402;SDS011;18039;52.188;21.024;2023-04-15T11:58:46;6.97;;;4.60;;
31402;SDS011;18039;52.188;21.024;2023-04-15T12:01:14;11.95;;;4.70;;
31402;SDS011;18039;52.188;21.024;2023-04-15T12:03:42;8.82;;;5.05;;
31402;SDS011;18039;52.188;21.024;2023-04-15T12:06:13;6.93;;;5.13;;
31402;SDS011;18039;52.188;21.024;2023-04-15T12:08:49;6.93;;;4.63;;
31402;SDS011;18039;52.188;21.024;2023-04-15T12:11:48;6.82;;;4.70;;
31402;SDS011;18039;52.188;21.024;2023-04-15T12:16:58;7.40;;;4.70;;
31402;SDS011;18039;52.188;21.024;2023-04-15T12:19:34;6.47;;;4.75;;
31402;SDS011;18039;52.188;21.024;2023-04-15T12:22:09;6.80;;;4.80;;
31402;SDS011;18039;52.188;21.024;2023-04-15T12:24:38;7.95;;;5.05;;
31402;SDS011;18039;52.188;21.024;2023-04-15T12:27:07;6.82;;;4.43;;
31402;SDS011;18039;52.188;21.024;2023-04-15T12:29:37;7.00;;;4.50;;
31402;SDS011;18039;52.188;21.024;2023-04-15T12:32:07;8.35;;;4.05;;
31402;SDS011;18039;52.188;21.024;2023-04-15T12:34:35;5.53;;;3.38;;
31402;SDS011;18039;52.188;21.024;2023-04-15T12:37:05;8.18;;;4.07;;
31402;SDS011;18039;52.188;21.024;2023-04-15T12:39:37;6.85;;;3.97;;
31402;SDS011;18039;52.188;21.024;2023-04-15T12:42:05;5.82;;;3.63;;
31402;SDS011;18039;52.188;21.024;2023-04-15T12:44:34;5.35;;;3.47;;
31402;SDS011;18039;52.188;21.024;2023-04-15T12:47:03;5.80;;;3.85;;
31402;SDS011;18039;52.188;21.024;2023-04-15T12:49:31;6.65;;;4.10;;
31402;SDS011;18039;52.188;21.024;2023-04-15T12:51:59;4.35;;;2.90;;
31402;SDS011;18039;52.188;21.024;2023-04-15T12:54:27;3.72;;;2.72;;
31402;SDS011;18039;52.188;21.024;2023-04-15T12:56:56;5.97;;;2.80;;
31402;SDS011;18039;52.188;21.024;2023-04-15T12:59:24;4.25;;;2.85;;
31402;SDS011;18039;52.188;21.024;2023-04-15T13:01:51;4.70;;;2.90;;
31402;SDS011;18039;52.188;21.024;2023-04-15T13:04:20;7.53;;;3.75;;
31402;SDS011;18039;52.188;21.024;2023-04-15T13:06:48;6.18;;;3.67;;
31402;SDS011;18039;52.188;21.024;2023-04-15T13:09:16;5.40;;;3.60;;
31402;SDS011;18039;52.188;21.024;2023-04-15T13:11:43;8.55;;;3.50;;
31402;SDS011;18039;52.188;21.024;2023-04-15T13:14:11;5.22;;;2.83;;
31402;SDS011;18039;52.188;21.024;2023-04-15T13:16:39;6.93;;;3.03;;
31402;SDS011;18039;52.188;21.024;2023-04-15T13:19:06;3.72;;;1.88;;
31402;SDS011;18039;52.188;21.024;2023-04-15T13:21:34;5.18;;;1.92;;
31402;SDS011;18039;52.188;21.024;2023-04-15T13:24:02;3.63;;;1.73;;
31402;SDS011;18039;52.188;21.024;2023-04-15T13:26:31;2.35;;;1.80;;
31402;SDS011;18039;52.188;21.024;2023-04-15T13:28:58;2.53;;;1.38;;
31402;SDS011;18039;52.188;21.024;2023-04-15T13:31:27;2.97;;;1.70;;
31402;SDS011;18039;52.188;21.024;2023-04-15T13:33:55;5.00;;;1.80;;
31402;SDS011;18039;52.188;21.024;2023-04-15T13:36:23;2.50;;;1.52;;
31402;SDS011;18039;52.188;21.024;2023-04-15T13:38:50;6.25;;;1.98;;
31402;SDS011;18039;52.188;21.024;2023-04-15T13:41:17;4.13;;;2.50;;
31402;SDS011;18039;52.188;21.024;2023-04-15T13:43:45;2.85;;;2.15;;
31402;SDS011;18039;52.188;21.024;2023-04-15T13:46:13;4.25;;;2.10;;
31402;SDS011;18039;52.188;21.024;2023-04-15T13:48:40;3.20;;;2.10;;
31402;SDS011;18039;52.188;21.024;2023-04-15T13:51:08;4.55;;;1.98;;
31402;SDS011;18039;52.188;21.024;2023-04-15T13:53:35;3.10;;;2.15;;
31402;SDS011;18039;52.188;21.024;2023-04-15T13:56:09;3.47;;;1.80;;
31402;SDS011;18039;52.188;21.024;2023-04-15T13:58:36;4.43;;;1.75;;
31402;SDS011;18039;52.188;21.024;2023-04-15T14:01:04;5.53;;;2.03;;
31402;SDS011;18039;52.188;21.024;2023-04-15T14:03:33;4.10;;;1.98;;
31402;SDS011;18039;52.188;21.024;2023-04-15T14:06:03;3.75;;;2.08;;
31402;SDS011;18039;52.188;21.024;2023-04-15T14:08:31;3.42;;;2.40;;
31402;SDS011;18039;52.188;21.024;2023-04-15T14:10:59;3.72;;;2.00;;
31402;SDS011;18039;52.188;21.024;2023-04-15T14:13:26;5.05;;;2.58;;
31402;SDS011;18039;52.188;21.024;2023-04-15T14:15:53;4.03;;;2.10;;
31402;SDS011;18039;52.188;21.024;2023-04-15T14:18:22;5.18;;;2.00;;
31402;SDS011;18039;52.188;21.024;2023-04-15T14:20:50;4.38;;;2.13;;
31402;SDS011;18039;52.188;21.024;2023-04-15T14:23:18;2.88;;;1.73;;
31402;SDS011;18039;52.188;21.024;2023-04-15T14:25:45;2.42;;;1.70;;
31402;SDS011;18039;52.188;21.024;2023-04-15T14:28:14;3.95;;;1.75;;
31402;SDS011;18039;52.188;21.024;2023-04-15T14:30:41;2.50;;;2.08;;
31402;SDS011;18039;52.188;21.024;2023-04-15T14:33:09;2.38;;;1.73;;
31402;SDS011;18039;52.188;21.024;2023-04-15T14:35:36;2.75;;;1.80;;
31402;SDS011;18039;52.188;21.024;2023-04-15T14:38:04;3.22;;;1.90;;
31402;SDS011;18039;52.188;21.024;2023-04-15T14:40:34;5.05;;;2.22;;
31402;SDS011;18039;52.188;21.024;2023-04-15T14:43:01;5.78;;;2.83;;
31402;SDS011;18039;52.188;21.024;2023-04-15T14:45:29;2.08;;;1.60;;
31402;SDS011;18039;52.188;21.024;2023-04-15T14:47:56;5.28;;;2.10;;
31402;SDS011;18039;52.188;21.024;2023-04-15T14:50:24;6.13;;;1.83;;
31402;SDS011;18039;52.188;21.024;2023-04-15T14:52:51;2.95;;;1.70;;